sensor_id;sensor_type;location;lat;lon;timestamp;P1;durP1;ratioP1;P2;durP2;ratioP2
11960;SDS011;6040;49.358;11.140;2023-04-25T00:00:20;4.57;;;3.80;;
11960;SDS011;6040;49.358;11.140;2023-04-25T00:02:48;4.60;;;3.17;;
11960;SDS011;6040;49.358;11.140;2023-04-25T00:05:15;3.03;;;2.83;;
11960;SDS011;6040;49.358;11.140;2023-04-25T00:07:42;5.17;;;3.30;;
11960;SDS011;6040;49.358;11.140;2023-04-25T00:10:09;3.43;;;3.13;;
11960;SDS011;6040;49.358;11.140;2023-04-25T00:12:36;3.13;;;2.60;;
11960;SDS011;6040;49.358;11.140;2023-04-25T00:15:04;3.73;;;2.80;;
11960;SDS011;6040;49.358;11.140;2023-04-25T00:17:31;4.70;;;2.80;;
11960;SDS011;6040;49.358;11.140;2023-04-25T00:20:01;3.43;;;3.13;;
11960;SDS011;6040;49.358;11.140;2023-04-25T00:22:33;4.00;;;2.93;;
11960;SDS011;6040;49.358;11.140;2023-04-25T00:25:02;4.40;;;2.63;;
11960;SDS011;6040;49.358;11.140;2023-04-25T00:27:29;3.17;;;2.80;;
11960;SDS011;6040;49.358;11.140;2023-04-25T00:29:56;2.70;;;2.50;;
11960;SDS011;6040;49.358;11.140;2023-04-25T00:32:23;5.20;;;3.07;;
11960;SDS011;6040;49.358;11.140;2023-04-25T00:34:50;3.20;;;2.90;;
11960;SDS011;6040;49.358;11.140;2023-04-25T00:37:18;3.07;;;2.77;;
11960;SDS011;6040;49.358;11.140;2023-04-25T00:39:45;3.13;;;2.73;;
11960;SDS011;6040;49.358;11.140;2023-04-25T00:42:12;4.10;;;2.80;;
11960;SDS011;6040;49.358;11.140;2023-04-25T00:44:39;3.20;;;2.80;;
11960;SDS011;6040;49.358;11.140;2023-04-25T00:47:07;3.00;;;2.80;;
11960;SDS011;6040;49.358;11.140;2023-04-25T00:49:34;3.63;;;3.33;;
11960;SDS011;6040;49.358;11.140;2023-04-25T00:52:00;2.97;;;2.77;;
11960;SDS011;6040;49.358;11.140;2023-04-25T00:54:29;3.03;;;2.70;;
11960;SDS011;6040;49.358;11.140;2023-04-25T00:56:56;3.10;;;2.80;;
11960;SDS011;6040;49.358;11.140;2023-04-25T00:59:23;3.77;;;2.80;;
11960;SDS011;6040;49.358;11.140;2023-04-25T01:01:52;3.20;;;2.90;;
11960;SDS011;6040;49.358;11.140;2023-04-25T02:11:18;5.07;;;3.60;;
11960;SDS011;6040;49.358;11.140;2023-04-25T02:13:45;5.93;;;4.00;;
11960;SDS011;6040;49.358;11.140;2023-04-25T02:16:12;4.77;;;3.97;;
11960;SDS011;6040;49.358;11.140;2023-04-25T02:18:39;4.30;;;3.80;;
11960;SDS011;6040;49.358;11.140;2023-04-25T02:21:07;4.17;;;3.77;;
11960;SDS011;6040;49.358;11.140;2023-04-25T02:23:34;4.80;;;4.23;;
11960;SDS011;6040;49.358;11.140;2023-04-25T02:26:01;6.40;;;4.03;;
11960;SDS011;6040;49.358;11.140;2023-04-25T02:28:30;4.93;;;4.07;;
11960;SDS011;6040;49.358;11.140;2023-04-25T02:30:57;4.67;;;3.83;;
11960;SDS011;6040;49.358;11.140;2023-04-25T02:33:24;4.40;;;4.00;;
11960;SDS011;6040;49.358;11.140;2023-04-25T02:35:51;4.83;;;4.20;;
11960;SDS011;6040;49.358;11.140;2023-04-25T02:38:18;4.00;;;3.70;;
11960;SDS011;6040;49.358;11.140;2023-04-25T02:40:44;3.87;;;3.47;;
11960;SDS011;6040;49.358;11.140;2023-04-25T02:43:11;6.90;;;4.30;;
11960;SDS011;6040;49.358;11.140;2023-04-25T02:45:39;5.33;;;4.00;;
11960;SDS011;6040;49.358;11.140;2023-04-25T02:48:06;4.60;;;4.10;;
11960;SDS011;6040;49.358;11.140;2023-04-25T02:50:33;4.00;;;3.50;;
11960;SDS011;6040;49.358;11.140;2023-04-25T02:53:00;4.87;;;4.27;;
11960;SDS011;6040;49.358;11.140;2023-04-25T02:55:27;5.23;;;3.73;;
11960;SDS011;6040;49.358;11.140;2023-04-25T02:57:53;4.27;;;3.67;;
11960;SDS011;6040;49.358;11.140;2023-04-25T03:00:21;5.33;;;4.03;;
11960;SDS011;6040;49.358;11.140;2023-04-25T03:02:50;4.20;;;3.73;;
11960;SDS011;6040;49.358;11.140;2023-04-25T03:05:17;4.33;;;3.93;;
11960;SDS011;6040;49.358;11.140;2023-04-25T03:07:44;4.60;;;4.20;;
11960;SDS011;6040;49.358;11.140;2023-04-25T03:10:11;4.03;;;3.60;;
11960;SDS011;6040;49.358;11.140;2023-04-25T03:12:38;4.20;;;3.80;;
11960;SDS011;6040;49.358;11.140;2023-04-25T03:15:05;4.50;;;3.60;;
11960;SDS011;6040;49.358;11.140;2023-04-25T03:17:33;5.43;;;3.80;;
11960;SDS011;6040;49.358;11.140;2023-04-25T03:20:01;6.80;;;3.63;;
11960;SDS011;6040;49.358;11.140;2023-04-25T03:22:30;3.97;;;3.63;;
11960;SDS011;6040;49.358;11.140;2023-04-25T03:24:57;7.03;;;3.90;;
11960;SDS011;6040;49.358;11.140;2023-04-25T03:27:24;3.90;;;3.50;;
11960;SDS011;6040;49.358;11.140;2023-04-25T03:29:51;4.13;;;3.73;;
11960;SDS011;6040;49.358;11.140;2023-04-25T03:32:18;3.93;;;3.50;;
11960;SDS011;6040;49.358;11.140;2023-04-25T03:34:44;6.07;;;3.70;;
11960;SDS011;6040;49.358;11.140;2023-04-25T03:37:13;4.00;;;3.70;;
11960;SDS011;6040;49.358;11.140;2023-04-25T03:39:39;3.87;;;3.47;;
11960;SDS011;6040;49.358;11.140;2023-04-25T03:42:06;5.17;;;3.73;;
11960;SDS011;6040;49.358;11.140;2023-04-25T03:44:33;4.80;;;3.77;;
11960;SDS011;6040;49.358;11.140;2023-04-25T03:47:00;3.97;;;3.57;;
11960;SDS011;6040;49.358;11.140;2023-04-25T03:49:27;4.57;;;3.67;;
11960;SDS011;6040;49.358;11.140;2023-04-25T03:51:54;5.17;;;3.27;;
11960;SDS011;6040;49.358;11.140;2023-04-25T03:54:22;6.77;;;3.67;;
11960;SDS011;6040;49.358;11.140;2023-04-25T03:56:49;4.27;;;3.50;;
11960;SDS011;6040;49.358;11.140;2023-04-25T03:59:15;3.80;;;3.37;;
11960;SDS011;6040;49.358;11.140;2023-04-25T04:01:42;3.53;;;3.23;;
11960;SDS011;6040;49.358;11.140;2023-04-25T04:04:09;3.57;;;3.27;;
11960;SDS011;6040;49.358;11.140;2023-04-25T04:06:36;5.97;;;4.17;;
11960;SDS011;6040;49.358;11.140;2023-04-25T04:09:03;5.47;;;3.37;;
11960;SDS011;6040;49.358;11.140;2023-04-25T04:11:31;4.37;;;3.63;;
11960;SDS011;6040;49.358;11.140;2023-04-25T04:13:58;4.43;;;3.67;;
11960;SDS011;6040;49.358;11.140;2023-04-25T04:16:25;4.50;;;3.23;;
11960;SDS011;6040;49.358;11.140;2023-04-25T04:18:52;4.00;;;3.60;;
11960;SDS011;6040;49.358;11.140;2023-04-25T04:21:19;5.53;;;3.80;;
11960;SDS011;6040;49.358;11.140;2023-04-25T04:23:45;3.50;;;3.20;;
11960;SDS011;6040;49.358;11.140;2023-04-25T04:26:13;4.47;;;3.63;;
11960;SDS011;6040;49.358;11.140;2023-04-25T04:28:42;4.10;;;3.43;;
11960;SDS011;6040;49.358;11.140;2023-04-25T04:31:10;5.40;;;3.50;;
11960;SDS011;6040;49.358;11.140;2023-04-25T04:33:36;3.90;;;3.37;;
11960;SDS011;6040;49.358;11.140;2023-04-25T04:36:03;3.57;;;3.23;;
11960;SDS011;6040;49.358;11.140;2023-04-25T04:38:32;4.37;;;3.57;;
11960;SDS011;6040;49.358;11.140;2023-04-25T04:40:59;4.17;;;3.50;;
11960;SDS011;6040;49.358;11.140;2023-04-25T04:43:27;4.63;;;3.40;;
11960;SDS011;6040;49.358;11.140;2023-04-25T04:45:55;4.97;;;3.33;;
11960;SDS011;6040;49.358;11.140;2023-04-25T04:48:22;5.40;;;3.47;;
11960;SDS011;6040;49.358;11.140;2023-04-25T04:50:49;6.77;;;3.40;;
11960;SDS011;6040;49.358;11.140;2023-04-25T04:53:16;3.47;;;3.13;;
11960;SDS011;6040;49.358;11.140;2023-04-25T04:55:43;4.03;;;3.30;;
11960;SDS011;6040;49.358;11.140;2023-04-25T04:58:11;4.03;;;3.70;;
11960;SDS011;6040;49.358;11.140;2023-04-25T05:00:38;4.50;;;3.83;;
11960;SDS011;6040;49.358;11.140;2023-04-25T05:03:06;4.57;;;3.30;;
11960;SDS011;6040;49.358;11.140;2023-04-25T05:05:33;4.67;;;3.80;;
11960;SDS011;6040;49.358;11.140;2023-04-25T05:08:00;5.47;;;3.30;;
11960;SDS011;6040;49.358;11.140;2023-04-25T05:10:27;3.60;;;3.27;;
11960;SDS011;6040;49.358;11.140;2023-04-25T05:12:53;6.20;;;3.87;;
11960;SDS011;6040;49.358;11.140;2023-04-25T05:15:20;3.70;;;3.37;;
11960;SDS011;6040;49.358;11.140;2023-04-25T05:17:47;4.73;;;3.60;;
11960;SDS011;6040;49.358;11.140;2023-04-25T05:20:15;5.13;;;3.80;;
11960;SDS011;6040;49.358;11.140;2023-04-25T05:22:43;3.83;;;3.43;;
11960;SDS011;6040;49.358;11.140;2023-04-25T05:25:10;4.47;;;4.07;;
11960;SDS011;6040;49.358;11.140;2023-04-25T05:27:37;4.47;;;3.50;;
11960;SDS011;6040;49.358;11.140;2023-04-25T05:30:04;8.27;;;3.90;;
11960;SDS011;6040;49.358;11.140;2023-04-25T05:32:32;4.53;;;4.03;;
11960;SDS011;6040;49.358;11.140;2023-04-25T05:34:59;6.10;;;4.33;;
11960;SDS011;6040;49.358;11.140;2023-04-25T05:37:27;4.83;;;4.17;;
11960;SDS011;6040;49.358;11.140;2023-04-25T05:39:55;5.90;;;4.23;;
11960;SDS011;6040;49.358;11.140;2023-04-25T05:42:22;4.87;;;3.87;;
11960;SDS011;6040;49.358;11.140;2023-04-25T05:44:49;4.87;;;3.87;;
11960;SDS011;6040;49.358;11.140;2023-04-25T05:47:16;5.23;;;4.30;;
11960;SDS011;6040;49.358;11.140;2023-04-25T05:49:42;4.73;;;4.30;;
11960;SDS011;6040;49.358;11.140;2023-04-25T05:52:09;4.37;;;3.70;;
11960;SDS011;6040;49.358;11.140;2023-04-25T05:54:37;4.93;;;4.30;;
11960;SDS011;6040;49.358;11.140;2023-04-25T05:57:04;6.40;;;4.37;;
11960;SDS011;6040;49.358;11.140;2023-04-25T05:59:31;5.23;;;4.60;;
11960;SDS011;6040;49.358;11.140;2023-04-25T06:01:58;6.53;;;4.53;;
11960;SDS011;6040;49.358;11.140;2023-04-25T06:04:25;4.50;;;4.07;;
11960;SDS011;6040;49.358;11.140;2023-04-25T06:06:52;4.80;;;4.13;;
11960;SDS011;6040;49.358;11.140;2023-04-25T06:09:19;4.70;;;4.03;;
11960;SDS011;6040;49.358;11.140;2023-04-25T06:11:47;5.47;;;4.50;;
11960;SDS011;6040;49.358;11.140;2023-04-25T06:14:14;5.23;;;4.50;;
11960;SDS011;6040;49.358;11.140;2023-04-25T06:16:41;5.97;;;4.33;;
11960;SDS011;6040;49.358;11.140;2023-04-25T06:19:08;5.57;;;4.47;;
11960;SDS011;6040;49.358;11.140;2023-04-25T06:21:34;5.43;;;4.57;;
11960;SDS011;6040;49.358;11.140;2023-04-25T06:24:01;7.13;;;4.20;;
11960;SDS011;6040;49.358;11.140;2023-04-25T06:26:28;6.27;;;4.97;;
11960;SDS011;6040;49.358;11.140;2023-04-25T06:28:57;4.90;;;4.50;;
11960;SDS011;6040;49.358;11.140;2023-04-25T06:31:23;4.93;;;4.50;;
11960;SDS011;6040;49.358;11.140;2023-04-25T06:33:50;5.83;;;4.77;;
11960;SDS011;6040;49.358;11.140;2023-04-25T06:36:19;7.43;;;4.63;;
11960;SDS011;6040;49.358;11.140;2023-04-25T06:38:49;5.20;;;4.70;;
11960;SDS011;6040;49.358;11.140;2023-04-25T06:41:16;5.70;;;4.83;;
11960;SDS011;6040;49.358;11.140;2023-04-25T06:43:43;5.50;;;4.70;;
11960;SDS011;6040;49.358;11.140;2023-04-25T06:46:12;6.20;;;5.07;;
11960;SDS011;6040;49.358;11.140;2023-04-25T06:48:38;6.40;;;5.10;;
11960;SDS011;6040;49.358;11.140;2023-04-25T06:51:05;6.60;;;5.60;;
11960;SDS011;6040;49.358;11.140;2023-04-25T06:53:32;5.40;;;4.90;;
11960;SDS011;6040;49.358;11.140;2023-04-25T06:55:59;5.83;;;4.93;;
11960;SDS011;6040;49.358;11.140;2023-04-25T06:58:26;5.80;;;5.23;;
11960;SDS011;6040;49.358;11.140;2023-04-25T07:00:52;7.10;;;5.50;;
11960;SDS011;6040;49.358;11.140;2023-04-25T07:03:21;6.77;;;5.93;;
11960;SDS011;6040;49.358;11.140;2023-04-25T07:05:48;7.97;;;5.80;;
11960;SDS011;6040;49.358;11.140;2023-04-25T07:08:15;6.87;;;5.97;;
11960;SDS011;6040;49.358;11.140;2023-04-25T07:10:42;6.57;;;5.77;;
11960;SDS011;6040;49.358;11.140;2023-04-25T07:13:11;6.60;;;5.90;;
11960;SDS011;6040;49.358;11.140;2023-04-25T07:15:37;7.07;;;5.90;;
11960;SDS011;6040;49.358;11.140;2023-04-25T07:18:04;5.87;;;5.27;;
11960;SDS011;6040;49.358;11.140;2023-04-25T07:20:33;6.73;;;6.03;;
11960;SDS011;6040;49.358;11.140;2023-04-25T07:22:59;7.03;;;6.33;;
11960;SDS011;6040;49.358;11.140;2023-04-25T07:25:26;6.83;;;6.13;;
11960;SDS011;6040;49.358;11.140;2023-04-25T07:27:53;8.90;;;6.33;;
11960;SDS011;6040;49.358;11.140;2023-04-25T07:30:20;8.63;;;6.40;;
11960;SDS011;6040;49.358;11.140;2023-04-25T07:32:47;7.93;;;6.30;;
11960;SDS011;6040;49.358;11.140;2023-04-25T07:35:15;8.27;;;6.80;;
11960;SDS011;6040;49.358;11.140;2023-04-25T07:37:43;6.80;;;6.10;;
11960;SDS011;6040;49.358;11.140;2023-04-25T07:40:10;7.30;;;6.40;;
11960;SDS011;6040;49.358;11.140;2023-04-25T07:42:37;8.77;;;6.60;;
11960;SDS011;6040;49.358;11.140;2023-04-25T07:45:05;12.37;;;5.90;;
11960;SDS011;6040;49.358;11.140;2023-04-25T07:47:32;8.40;;;5.70;;
11960;SDS011;6040;49.358;11.140;2023-04-25T07:49:59;8.10;;;6.30;;
11960;SDS011;6040;49.358;11.140;2023-04-25T07:52:26;8.83;;;5.63;;
11960;SDS011;6040;49.358;11.140;2023-04-25T07:54:55;6.80;;;5.93;;
11960;SDS011;6040;49.358;11.140;2023-04-25T07:57:22;5.90;;;5.30;;
11960;SDS011;6040;49.358;11.140;2023-04-25T07:59:50;5.10;;;4.60;;
11960;SDS011;6040;49.358;11.140;2023-04-25T08:02:17;5.07;;;4.40;;
11960;SDS011;6040;49.358;11.140;2023-04-25T08:04:44;5.20;;;4.07;;
11960;SDS011;6040;49.358;11.140;2023-04-25T08:07:11;6.03;;;4.43;;
11960;SDS011;6040;49.358;11.140;2023-04-25T08:09:38;6.93;;;3.97;;
11960;SDS011;6040;49.358;11.140;2023-04-25T08:12:06;5.53;;;3.70;;
11960;SDS011;6040;49.358;11.140;2023-04-25T08:14:33;4.03;;;3.63;;
11960;SDS011;6040;49.358;11.140;2023-04-25T08:17:02;4.23;;;3.40;;
11960;SDS011;6040;49.358;11.140;2023-04-25T08:19:29;4.67;;;3.67;;
11960;SDS011;6040;49.358;11.140;2023-04-25T08:21:56;4.47;;;3.40;;
11960;SDS011;6040;49.358;11.140;2023-04-25T08:24:23;4.70;;;3.60;;
11960;SDS011;6040;49.358;11.140;2023-04-25T08:26:50;4.87;;;3.70;;
11960;SDS011;6040;49.358;11.140;2023-04-25T08:29:19;6.63;;;3.33;;
11960;SDS011;6040;49.358;11.140;2023-04-25T08:31:46;4.57;;;3.40;;
11960;SDS011;6040;49.358;11.140;2023-04-25T08:34:13;4.07;;;3.63;;
11960;SDS011;6040;49.358;11.140;2023-04-25T08:36:40;7.00;;;4.33;;
11960;SDS011;6040;49.358;11.140;2023-04-25T08:39:07;4.50;;;3.43;;
11960;SDS011;6040;49.358;11.140;2023-04-25T08:41:34;4.90;;;3.70;;
11960;SDS011;6040;49.358;11.140;2023-04-25T08:44:02;4.90;;;2.83;;
11960;SDS011;6040;49.358;11.140;2023-04-25T08:46:31;3.13;;;2.80;;
11960;SDS011;6040;49.358;11.140;2023-04-25T08:49:00;3.00;;;2.70;;
11960;SDS011;6040;49.358;11.140;2023-04-25T08:51:27;3.67;;;2.63;;
11960;SDS011;6040;49.358;11.140;2023-04-25T08:54:00;3.80;;;2.63;;
11960;SDS011;6040;49.358;11.140;2023-04-25T08:56:33;3.30;;;3.00;;
11960;SDS011;6040;49.358;11.140;2023-04-25T08:59:00;3.50;;;3.00;;
11960;SDS011;6040;49.358;11.140;2023-04-25T09:01:28;5.23;;;3.00;;
11960;SDS011;6040;49.358;11.140;2023-04-25T09:03:56;4.80;;;3.40;;
11960;SDS011;6040;49.358;11.140;2023-04-25T09:06:23;4.73;;;2.97;;
11960;SDS011;6040;49.358;11.140;2023-04-25T09:08:51;4.67;;;3.43;;
11960;SDS011;6040;49.358;11.140;2023-04-25T09:11:18;4.30;;;3.07;;
11960;SDS011;6040;49.358;11.140;2023-04-25T09:13:45;6.00;;;3.47;;
11960;SDS011;6040;49.358;11.140;2023-04-25T09:16:12;6.10;;;3.67;;
11960;SDS011;6040;49.358;11.140;2023-04-25T09:18:42;3.93;;;3.27;;
11960;SDS011;6040;49.358;11.140;2023-04-25T09:21:10;4.50;;;3.63;;
11960;SDS011;6040;49.358;11.140;2023-04-25T09:23:41;4.20;;;3.77;;
11960;SDS011;6040;49.358;11.140;2023-04-25T09:26:10;5.83;;;3.97;;
11960;SDS011;6040;49.358;11.140;2023-04-25T09:28:40;5.40;;;4.13;;
11960;SDS011;6040;49.358;11.140;2023-04-25T09:31:09;4.63;;;3.83;;
11960;SDS011;6040;49.358;11.140;2023-04-25T09:33:37;4.27;;;3.57;;
11960;SDS011;6040;49.358;11.140;2023-04-25T09:36:04;4.80;;;3.90;;
11960;SDS011;6040;49.358;11.140;2023-04-25T09:38:39;5.50;;;3.73;;
11960;SDS011;6040;49.358;11.140;2023-04-25T09:41:07;5.40;;;3.93;;
11960;SDS011;6040;49.358;11.140;2023-04-25T09:43:34;4.43;;;3.97;;
11960;SDS011;6040;49.358;11.140;2023-04-25T09:46:01;4.67;;;3.80;;
11960;SDS011;6040;49.358;11.140;2023-04-25T09:48:29;4.30;;;3.90;;
11960;SDS011;6040;49.358;11.140;2023-04-25T09:51:05;4.80;;;3.97;;
11960;SDS011;6040;49.358;11.140;2023-04-25T09:53:35;4.97;;;4.10;;
11960;SDS011;6040;49.358;11.140;2023-04-25T09:56:03;5.37;;;3.90;;
11960;SDS011;6040;49.358;11.140;2023-04-25T09:58:34;5.03;;;4.07;;
11960;SDS011;6040;49.358;11.140;2023-04-25T10:01:01;4.93;;;3.60;;
11960;SDS011;6040;49.358;11.140;2023-04-25T10:03:29;6.60;;;3.67;;
11960;SDS011;6040;49.358;11.140;2023-04-25T10:05:58;3.93;;;3.30;;
11960;SDS011;6040;49.358;11.140;2023-04-25T10:08:28;4.23;;;3.80;;
11960;SDS011;6040;49.358;11.140;2023-04-25T10:11:00;3.77;;;3.40;;
11960;SDS011;6040;49.358;11.140;2023-04-25T10:13:28;6.17;;;3.60;;
11960;SDS011;6040;49.358;11.140;2023-04-25T10:15:56;3.50;;;3.20;;
11960;SDS011;6040;49.358;11.140;2023-04-25T10:18:24;3.90;;;3.40;;
11960;SDS011;6040;49.358;11.140;2023-04-25T10:20:52;5.40;;;3.33;;
11960;SDS011;6040;49.358;11.140;2023-04-25T10:23:20;4.13;;;3.67;;
11960;SDS011;6040;49.358;11.140;2023-04-25T10:25:47;5.40;;;3.47;;
11960;SDS011;6040;49.358;11.140;2023-04-25T10:28:16;4.67;;;3.43;;
11960;SDS011;6040;49.358;11.140;2023-04-25T10:30:57;7.07;;;3.70;;
11960;SDS011;6040;49.358;11.140;2023-04-25T10:33:34;4.03;;;3.60;;
11960;SDS011;6040;49.358;11.140;2023-04-25T10:36:09;5.73;;;3.77;;
11960;SDS011;6040;49.358;11.140;2023-04-25T10:38:37;5.73;;;3.70;;
11960;SDS011;6040;49.358;11.140;2023-04-25T10:41:05;5.27;;;3.80;;
11960;SDS011;6040;49.358;11.140;2023-04-25T10:43:36;4.37;;;3.40;;
11960;SDS011;6040;49.358;11.140;2023-04-25T10:46:12;5.47;;;3.47;;
11960;SDS011;6040;49.358;11.140;2023-04-25T10:48:44;3.70;;;3.33;;
11960;SDS011;6040;49.358;11.140;2023-04-25T10:51:16;5.43;;;3.17;;
11960;SDS011;6040;49.358;11.140;2023-04-25T10:53:44;5.23;;;3.30;;
11960;SDS011;6040;49.358;11.140;2023-04-25T10:56:11;5.07;;;3.57;;
11960;SDS011;6040;49.358;11.140;2023-04-25T10:58:44;5.10;;;3.60;;
11960;SDS011;6040;49.358;11.140;2023-04-25T11:01:12;4.87;;;3.70;;
11960;SDS011;6040;49.358;11.140;2023-04-25T11:03:40;5.33;;;3.20;;
11960;SDS011;6040;49.358;11.140;2023-04-25T11:06:09;5.43;;;3.80;;
11960;SDS011;6040;49.358;11.140;2023-04-25T11:08:47;4.83;;;3.50;;
11960;SDS011;6040;49.358;11.140;2023-04-25T11:11:15;3.57;;;3.10;;
11960;SDS011;6040;49.358;11.140;2023-04-25T11:13:44;4.87;;;3.40;;
11960;SDS011;6040;49.358;11.140;2023-04-25T11:16:14;3.87;;;2.97;;
11960;SDS011;6040;49.358;11.140;2023-04-25T11:18:41;3.00;;;2.70;;
11960;SDS011;6040;49.358;11.140;2023-04-25T11:21:08;4.37;;;2.27;;
11960;SDS011;6040;49.358;11.140;2023-04-25T11:23:35;2.60;;;2.27;;
11960;SDS011;6040;49.358;11.140;2023-04-25T11:26:02;2.73;;;2.10;;
11960;SDS011;6040;49.358;11.140;2023-04-25T11:28:29;4.17;;;2.30;;
11960;SDS011;6040;49.358;11.140;2023-04-25T11:30:57;2.90;;;2.10;;
11960;SDS011;6040;49.358;11.140;2023-04-25T11:33:25;2.47;;;2.20;;
11960;SDS011;6040;49.358;11.140;2023-04-25T11:35:53;3.17;;;2.00;;
11960;SDS011;6040;49.358;11.140;2023-04-25T11:38:20;2.70;;;2.07;;
11960;SDS011;6040;49.358;11.140;2023-04-25T11:40:49;2.63;;;2.00;;
11960;SDS011;6040;49.358;11.140;2023-04-25T11:43:17;2.20;;;2.00;;
11960;SDS011;6040;49.358;11.140;2023-04-25T11:45:46;4.13;;;1.73;;
11960;SDS011;6040;49.358;11.140;2023-04-25T11:48:15;1.90;;;1.60;;
11960;SDS011;6040;49.358;11.140;2023-04-25T11:50:42;2.13;;;1.67;;
11960;SDS011;6040;49.358;11.140;2023-04-25T11:53:08;2.00;;;1.43;;
11960;SDS011;6040;49.358;11.140;2023-04-25T11:55:35;2.30;;;1.50;;
11960;SDS011;6040;49.358;11.140;2023-04-25T11:58:04;2.27;;;1.50;;
11960;SDS011;6040;49.358;11.140;2023-04-25T12:00:31;2.63;;;1.60;;
11960;SDS011;6040;49.358;11.140;2023-04-25T12:02:58;2.33;;;1.63;;
11960;SDS011;6040;49.358;11.140;2023-04-25T12:05:27;2.23;;;1.50;;
11960;SDS011;6040;49.358;11.140;2023-04-25T12:07:55;1.50;;;1.30;;
11960;SDS011;6040;49.358;11.140;2023-04-25T12:10:23;1.53;;;1.43;;
11960;SDS011;6040;49.358;11.140;2023-04-25T12:12:51;4.30;;;1.63;;
11960;SDS011;6040;49.358;11.140;2023-04-25T12:15:22;2.63;;;1.70;;
11960;SDS011;6040;49.358;11.140;2023-04-25T12:17:51;1.60;;;1.50;;
11960;SDS011;6040;49.358;11.140;2023-04-25T12:20:19;2.00;;;1.40;;
11960;SDS011;6040;49.358;11.140;2023-04-25T12:22:50;2.33;;;1.30;;
11960;SDS011;6040;49.358;11.140;2023-04-25T12:28:08;2.77;;;1.10;;
11960;SDS011;6040;49.358;11.140;2023-04-25T12:30:51;1.80;;;1.30;;
11960;SDS011;6040;49.358;11.140;2023-04-25T12:33:20;3.17;;;1.40;;
11960;SDS011;6040;49.358;11.140;2023-04-25T12:35:46;2.80;;;1.20;;
11960;SDS011;6040;49.358;11.140;2023-04-25T12:38:21;2.83;;;1.40;;
11960;SDS011;6040;49.358;11.140;2023-04-25T12:40:48;2.10;;;1.47;;
11960;SDS011;6040;49.358;11.140;2023-04-25T12:43:15;1.30;;;1.20;;
11960;SDS011;6040;49.358;11.140;2023-04-25T12:45:42;4.37;;;1.60;;
11960;SDS011;6040;49.358;11.140;2023-04-25T12:48:09;1.53;;;1.40;;
11960;SDS011;6040;49.358;11.140;2023-04-25T12:50:36;1.90;;;1.70;;
11960;SDS011;6040;49.358;11.140;2023-04-25T12:53:03;1.70;;;1.60;;
11960;SDS011;6040;49.358;11.140;2023-04-25T12:55:31;1.73;;;1.57;;
11960;SDS011;6040;49.358;11.140;2023-04-25T12:57:58;2.57;;;1.60;;
11960;SDS011;6040;49.358;11.140;2023-04-25T13:00:25;1.50;;;1.40;;
11960;SDS011;6040;49.358;11.140;2023-04-25T13:02:52;2.20;;;1.47;;
11960;SDS011;6040;49.358;11.140;2023-04-25T13:05:19;1.53;;;1.43;;
11960;SDS011;6040;49.358;11.140;2023-04-25T13:07:46;2.23;;;1.43;;
11960;SDS011;6040;49.358;11.140;2023-04-25T13:10:13;1.50;;;1.37;;
11960;SDS011;6040;49.358;11.140;2023-04-25T13:12:41;2.13;;;1.67;;
11960;SDS011;6040;49.358;11.140;2023-04-25T13:15:08;1.77;;;1.67;;
11960;SDS011;6040;49.358;11.140;2023-04-25T13:17:36;2.30;;;1.67;;
11960;SDS011;6040;49.358;11.140;2023-04-25T13:20:03;2.47;;;1.60;;
11960;SDS011;6040;49.358;11.140;2023-04-25T13:22:33;2.23;;;1.70;;
11960;SDS011;6040;49.358;11.140;2023-04-25T13:25:01;1.70;;;1.60;;
11960;SDS011;6040;49.358;11.140;2023-04-25T13:27:28;2.13;;;1.60;;
11960;SDS011;6040;49.358;11.140;2023-04-25T13:29:58;1.60;;;1.50;;
11960;SDS011;6040;49.358;11.140;2023-04-25T13:32:26;2.90;;;2.00;;
11960;SDS011;6040;49.358;11.140;2023-04-25T13:34:53;1.60;;;1.50;;
11960;SDS011;6040;49.358;11.140;2023-04-25T13:37:20;1.67;;;1.57;;
11960;SDS011;6040;49.358;11.140;2023-04-25T13:39:50;2.07;;;1.73;;
11960;SDS011;6040;49.358;11.140;2023-04-25T13:42:17;2.33;;;1.80;;
11960;SDS011;6040;49.358;11.140;2023-04-25T13:44:43;2.00;;;1.80;;
11960;SDS011;6040;49.358;11.140;2023-04-25T13:47:13;1.80;;;1.70;;
11960;SDS011;6040;49.358;11.140;2023-04-25T13:49:40;1.80;;;1.70;;
11960;SDS011;6040;49.358;11.140;2023-04-25T13:52:07;1.80;;;1.70;;
11960;SDS011;6040;49.358;11.140;2023-04-25T13:54:34;1.60;;;1.50;;
11960;SDS011;6040;49.358;11.140;2023-04-25T13:57:00;1.83;;;1.73;;
11960;SDS011;6040;49.358;11.140;2023-04-25T13:59:27;2.47;;;1.80;;
11960;SDS011;6040;49.358;11.140;2023-04-25T14:01:54;2.83;;;1.90;;
11960;SDS011;6040;49.358;11.140;2023-04-25T14:04:22;3.33;;;1.60;;
11960;SDS011;6040;49.358;11.140;2023-04-25T14:06:50;2.40;;;1.80;;
11960;SDS011;6040;49.358;11.140;2023-04-25T14:09:17;3.00;;;1.80;;
11960;SDS011;6040;49.358;11.140;2023-04-25T14:11:45;3.10;;;1.83;;
11960;SDS011;6040;49.358;11.140;2023-04-25T14:14:12;2.63;;;2.07;;
11960;SDS011;6040;49.358;11.140;2023-04-25T14:16:41;2.37;;;1.80;;
11960;SDS011;6040;49.358;11.140;2023-04-25T14:19:08;3.03;;;1.80;;
11960;SDS011;6040;49.358;11.140;2023-04-25T14:21:36;2.40;;;2.00;;
11960;SDS011;6040;49.358;11.140;2023-04-25T14:24:03;2.37;;;1.90;;
11960;SDS011;6040;49.358;11.140;2023-04-25T14:26:30;2.63;;;2.10;;
11960;SDS011;6040;49.358;11.140;2023-04-25T14:28:57;1.97;;;1.87;;
11960;SDS011;6040;49.358;11.140;2023-04-25T14:31:23;2.50;;;2.30;;
11960;SDS011;6040;49.358;11.140;2023-04-25T14:33:50;4.20;;;2.03;;
11960;SDS011;6040;49.358;11.140;2023-04-25T14:36:17;2.90;;;2.20;;
11960;SDS011;6040;49.358;11.140;2023-04-25T14:38:45;3.57;;;2.30;;
11960;SDS011;6040;49.358;11.140;2023-04-25T14:41:12;3.73;;;2.23;;
11960;SDS011;6040;49.358;11.140;2023-04-25T14:43:39;2.97;;;2.23;;
11960;SDS011;6040;49.358;11.140;2023-04-25T14:46:06;2.73;;;2.20;;
11960;SDS011;6040;49.358;11.140;2023-04-25T14:48:33;2.77;;;2.17;;
11960;SDS011;6040;49.358;11.140;2023-04-25T14:51:00;2.73;;;2.43;;
11960;SDS011;6040;49.358;11.140;2023-04-25T14:53:27;4.10;;;2.30;;
11960;SDS011;6040;49.358;11.140;2023-04-25T14:55:56;2.77;;;2.10;;
11960;SDS011;6040;49.358;11.140;2023-04-25T14:58:22;4.73;;;2.40;;
11960;SDS011;6040;49.358;11.140;2023-04-25T15:00:50;4.77;;;2.20;;
11960;SDS011;6040;49.358;11.140;2023-04-25T15:03:17;2.80;;;2.43;;
11960;SDS011;6040;49.358;11.140;2023-04-25T15:05:44;2.97;;;2.40;;
11960;SDS011;6040;49.358;11.140;2023-04-25T15:08:10;2.60;;;2.20;;
11960;SDS011;6040;49.358;11.140;2023-04-25T15:10:37;2.43;;;2.17;;
11960;SDS011;6040;49.358;11.140;2023-04-25T15:13:05;2.53;;;2.00;;
11960;SDS011;6040;49.358;11.140;2023-04-25T15:15:32;2.93;;;2.10;;
11960;SDS011;6040;49.358;11.140;2023-04-25T15:17:59;2.90;;;2.30;;
11960;SDS011;6040;49.358;11.140;2023-04-25T15:20:27;2.53;;;2.33;;
11960;SDS011;6040;49.358;11.140;2023-04-25T15:22:54;2.80;;;2.60;;
11960;SDS011;6040;49.358;11.140;2023-04-25T15:25:21;3.77;;;2.50;;
11960;SDS011;6040;49.358;11.140;2023-04-25T15:27:48;2.40;;;2.20;;
11960;SDS011;6040;49.358;11.140;2023-04-25T15:30:18;3.63;;;2.40;;
11960;SDS011;6040;49.358;11.140;2023-04-25T15:32:45;2.97;;;2.17;;
11960;SDS011;6040;49.358;11.140;2023-04-25T15:35:12;3.47;;;2.37;;
11960;SDS011;6040;49.358;11.140;2023-04-25T15:37:40;3.93;;;2.40;;
11960;SDS011;6040;49.358;11.140;2023-04-25T15:40:08;3.90;;;2.70;;
11960;SDS011;6040;49.358;11.140;2023-04-25T15:42:37;3.20;;;2.57;;
11960;SDS011;6040;49.358;11.140;2023-04-25T15:45:05;5.97;;;2.60;;
11960;SDS011;6040;49.358;11.140;2023-04-25T15:47:35;3.50;;;2.50;;
11960;SDS011;6040;49.358;11.140;2023-04-25T15:50:04;2.40;;;2.20;;
11960;SDS011;6040;49.358;11.140;2023-04-25T15:52:32;3.80;;;2.50;;
11960;SDS011;6040;49.358;11.140;2023-04-25T15:54:59;4.03;;;2.53;;
11960;SDS011;6040;49.358;11.140;2023-04-25T15:57:26;2.57;;;2.07;;
11960;SDS011;6040;49.358;11.140;2023-04-25T15:59:53;2.90;;;2.20;;